createdAt,value
2018-07-05T00:01:16.028Z,20.20
2018-07-05T00:03:55.763Z,20.10
2018-07-05T00:06:35.448Z,20.00
2018-07-05T00:09:15.057Z,20.10
2018-07-05T00:11:54.815Z,20.20
2018-07-05T00:14:34.531Z,20.20
2018-07-05T00:17:14.339Z,20.10
2018-07-05T00:19:53.996Z,20.00
2018-07-05T00:22:33.684Z,19.80
2018-07-05T00:25:13.515Z,19.80
2018-07-05T00:27:53.095Z,19.90
2018-07-05T00:30:32.792Z,20.00
2018-07-05T00:33:12.504Z,20.00
2018-07-05T00:35:52.216Z,20.10
2018-07-05T00:38:32.314Z,20.00
2018-07-05T00:41:11.955Z,20.00
2018-07-05T00:43:51.855Z,20.10
2018-07-05T00:46:31.559Z,20.10
2018-07-05T00:49:11.235Z,20.20
2018-07-05T00:51:51.096Z,20.30
2018-07-05T00:54:30.911Z,20.30
2018-07-05T00:57:10.655Z,20.20
2018-07-05T00:59:50.387Z,20.10
2018-07-05T01:02:30.013Z,20.00
2018-07-05T01:05:09.811Z,20.00
2018-07-05T01:07:49.455Z,20.00
2018-07-05T01:10:29.127Z,20.00
2018-07-05T01:13:08.807Z,20.10
2018-07-05T01:15:48.459Z,20.00
2018-07-05T01:18:28.227Z,20.00
2018-07-05T01:21:08.039Z,20.00
2018-07-05T01:23:47.970Z,19.90
2018-07-05T01:26:27.809Z,19.80
2018-07-05T01:29:07.500Z,19.70
2018-07-05T01:31:47.095Z,19.60
2018-07-05T01:34:26.736Z,19.60
2018-07-05T01:37:06.528Z,19.80
2018-07-05T01:39:46.295Z,19.70
2018-07-05T01:44:59.628Z,19.90
2018-07-05T01:47:39.195Z,19.90
2018-07-05T01:50:18.997Z,19.90
2018-07-05T01:52:58.560Z,19.90
2018-07-05T01:55:38.375Z,20.00
2018-07-05T01:58:18.192Z,19.90
2018-07-05T02:00:57.855Z,19.90
2018-07-05T02:03:37.650Z,19.90
2018-07-05T02:06:17.459Z,19.80
2018-07-05T02:08:57.199Z,19.70
2018-07-05T02:11:37.029Z,19.60
2018-07-05T02:14:16.791Z,19.50
2018-07-05T02:16:56.504Z,19.50
2018-07-05T02:19:36.371Z,19.50
2018-07-05T02:22:16.062Z,19.50
2018-07-05T02:24:55.705Z,19.30
2018-07-05T02:27:35.320Z,19.30
2018-07-05T02:30:14.978Z,19.30
2018-07-05T02:32:54.739Z,19.30
2018-07-05T02:35:34.556Z,19.30
2018-07-05T02:38:24.412Z,19.40
2018-07-05T02:41:05.119Z,19.30
2018-07-05T02:43:44.992Z,19.20
2018-07-05T02:46:24.747Z,19.10
2018-07-05T02:49:04.414Z,19.10
2018-07-05T02:51:44.175Z,19.10
2018-07-05T02:54:24.048Z,19.10
2018-07-05T02:57:03.988Z,19.20
2018-07-05T02:59:43.760Z,19.20
2018-07-05T03:02:23.612Z,19.20
2018-07-05T03:05:03.136Z,19.30
2018-07-05T03:07:43.075Z,19.30
2018-07-05T03:10:22.838Z,19.30
2018-07-05T03:13:02.509Z,19.20
2018-07-05T03:15:42.232Z,19.20
2018-07-05T03:18:22.067Z,19.20
2018-07-05T03:21:01.724Z,19.10
2018-07-05T03:23:41.551Z,18.90
2018-07-05T03:26:21.233Z,19.00
2018-07-05T03:29:00.911Z,19.00
2018-07-05T03:31:40.688Z,18.80
2018-07-05T03:34:20.564Z,18.80
2018-07-05T03:37:00.199Z,18.90
2018-07-05T03:39:39.923Z,18.80
2018-07-05T03:42:19.683Z,18.70
2018-07-05T03:44:59.440Z,18.80
2018-07-05T03:47:39.220Z,18.90
2018-07-05T03:50:18.962Z,18.90
2018-07-05T03:52:58.500Z,18.80
2018-07-05T03:55:38.092Z,18.80
2018-07-05T03:58:17.754Z,18.80
2018-07-05T04:00:57.576Z,18.80
2018-07-05T04:03:37.375Z,18.90
2018-07-05T04:06:17.068Z,19.00
2018-07-05T04:08:56.939Z,19.00
2018-07-05T04:11:36.695Z,19.00
2018-07-05T04:14:16.502Z,19.00
2018-07-05T04:16:56.152Z,19.00
2018-07-05T04:19:40.126Z,19.00
2018-07-05T04:22:20.015Z,19.10
2018-07-05T04:24:59.697Z,18.90
2018-07-05T04:27:39.362Z,19.00
2018-07-05T04:30:19.130Z,19.00
2018-07-05T04:32:58.870Z,18.90
2018-07-05T04:35:38.763Z,18.90
2018-07-05T04:38:18.589Z,18.80
2018-07-05T04:40:58.414Z,18.60
2018-07-05T04:43:38.331Z,18.50
2018-07-05T04:46:18.140Z,18.60
2018-07-05T04:48:57.785Z,18.70
2018-07-05T04:51:37.848Z,19.00
2018-07-05T04:54:17.992Z,19.30
2018-07-05T04:56:57.793Z,19.60
2018-07-05T04:59:37.587Z,20.10
2018-07-05T05:02:17.592Z,20.40
2018-07-05T05:04:57.331Z,20.50
2018-07-05T05:07:36.939Z,20.70
2018-07-05T05:10:16.635Z,20.90
2018-07-05T05:12:56.449Z,21.00
2018-07-05T05:15:36.075Z,21.10
2018-07-05T05:18:15.907Z,22.30
2018-07-05T05:20:55.641Z,22.70
2018-07-05T05:23:35.412Z,22.90
2018-07-05T05:26:15.195Z,22.30
2018-07-05T05:28:54.869Z,21.80
2018-07-05T05:31:34.947Z,21.60
2018-07-05T05:34:14.758Z,21.80
2018-07-05T05:36:54.560Z,21.80
2018-07-05T05:39:34.303Z,21.50
2018-07-05T05:42:14.067Z,21.30
2018-07-05T05:44:53.716Z,21.50
2018-07-05T05:47:33.436Z,21.70
2018-07-05T05:50:13.028Z,21.80
2018-07-05T05:52:52.800Z,21.90
2018-07-05T05:55:32.510Z,22.00
2018-07-05T05:58:12.184Z,22.20
2018-07-05T06:00:52.141Z,22.60
2018-07-05T06:03:31.894Z,22.50
2018-07-05T06:06:11.503Z,22.70
2018-07-05T06:08:51.127Z,22.70
2018-07-05T06:11:31.124Z,22.50
2018-07-05T06:14:10.773Z,22.50
2018-07-05T06:16:50.480Z,22.30
2018-07-05T06:19:30.476Z,22.50
2018-07-05T06:22:10.271Z,22.50
2018-07-05T06:24:50.066Z,22.30
2018-07-05T06:27:30.295Z,22.50
2018-07-05T06:30:10.052Z,22.10
2018-07-05T06:32:50.268Z,22.30
2018-07-05T06:35:30.397Z,22.40
2018-07-05T06:38:10.158Z,22.60
2018-07-05T06:40:49.836Z,22.60
2018-07-05T06:43:29.460Z,22.70
2018-07-05T06:46:09.125Z,22.80
2018-07-05T06:48:48.825Z,22.60
2018-07-05T06:51:28.544Z,22.70
2018-07-05T06:54:08.495Z,22.80
2018-07-05T06:56:48.019Z,22.90
2018-07-05T06:59:27.784Z,23.20
2018-07-05T07:02:07.679Z,22.80
2018-07-05T07:04:47.323Z,22.80
2018-07-05T07:07:26.887Z,22.70
2018-07-05T07:10:06.769Z,22.40
2018-07-05T07:12:46.652Z,22.10
2018-07-05T07:15:26.273Z,22.70
2018-07-05T07:18:05.849Z,22.70
2018-07-05T07:20:45.644Z,22.40
2018-07-05T07:23:25.345Z,22.70
2018-07-05T07:26:05.155Z,22.50
2018-07-05T07:28:44.927Z,22.20
2018-07-05T07:31:24.662Z,22.40
2018-07-05T07:34:04.388Z,22.70
2018-07-05T07:36:44.020Z,23.10
2018-07-05T07:39:23.744Z,23.70
2018-07-05T07:41:51.683Z,23.70
2018-07-05T07:44:20.288Z,23.90
2018-07-05T07:49:16.335Z,25.10
2018-07-05T07:51:43.659Z,26.50
2018-07-05T07:54:10.948Z,27.20
2018-07-05T07:56:38.287Z,28.90
2018-07-05T07:59:05.583Z,29.20
2018-07-05T08:01:32.887Z,30.10
2018-07-05T08:06:27.756Z,31.70
2018-07-05T08:08:55.067Z,30.40
2018-07-05T08:11:22.394Z,29.60
2018-07-05T08:13:49.695Z,29.50
2018-07-05T08:16:16.992Z,29.30
2018-07-05T08:18:44.299Z,28.60
2018-07-05T08:21:11.596Z,29.40
2018-07-05T08:23:38.908Z,31.10
2018-07-05T08:26:06.288Z,31.20
2018-07-05T08:28:33.599Z,30.00
2018-07-05T08:31:00.883Z,31.10
2018-07-05T08:35:55.793Z,33.40
2018-07-05T08:38:23.103Z,33.60
2018-07-05T08:40:50.406Z,35.10
2018-07-05T08:43:17.723Z,34.70
2018-07-05T08:45:45.408Z,34.40
2018-07-05T08:48:12.719Z,34.30
2018-07-05T08:50:40.020Z,36.00
2018-07-05T08:53:07.334Z,35.30
2018-07-05T08:55:34.647Z,36.10
2018-07-05T08:58:01.943Z,34.40
2018-07-05T09:00:29.247Z,35.40
2018-07-05T09:02:56.540Z,33.20
2018-07-05T09:05:23.854Z,32.30
2018-07-05T09:07:51.279Z,31.60
2018-07-05T09:10:18.633Z,30.70
2018-07-05T09:12:45.980Z,29.90
2018-07-05T09:15:13.279Z,30.90
2018-07-05T09:17:40.710Z,32.20
2018-07-05T09:20:07.931Z,33.00
2018-07-05T09:22:35.224Z,33.10
2018-07-05T09:25:02.840Z,30.90
2018-07-05T09:27:30.131Z,29.80
2018-07-05T09:29:57.451Z,29.40
2018-07-05T09:32:24.843Z,30.70
2018-07-05T09:34:52.156Z,31.40
2018-07-05T09:37:19.505Z,33.80
2018-07-05T09:39:46.793Z,35.20
2018-07-05T09:42:14.083Z,34.30
2018-07-05T09:44:41.388Z,34.30
2018-07-05T09:47:08.705Z,32.60
2018-07-05T09:49:36.025Z,32.70
2018-07-05T09:52:03.317Z,31.10
2018-07-05T09:54:30.599Z,31.20
2018-07-05T09:56:57.896Z,31.30
2018-07-05T09:59:25.212Z,32.20
2018-07-05T10:01:52.533Z,32.60
2018-07-05T10:04:19.814Z,32.30
2018-07-05T10:06:47.132Z,32.00
2018-07-05T10:09:14.509Z,32.50
2018-07-05T10:11:41.825Z,32.40
2018-07-05T10:14:09.116Z,32.00
2018-07-05T10:16:36.457Z,32.10
2018-07-05T10:19:03.964Z,31.50
2018-07-05T10:21:31.267Z,32.30
2018-07-05T10:23:58.553Z,32.80
2018-07-05T10:26:25.863Z,33.00
2018-07-05T10:29:05.558Z,32.10
2018-07-05T10:31:45.235Z,32.10
2018-07-05T10:34:12.535Z,32.10
2018-07-05T10:36:39.880Z,31.50
2018-07-05T10:41:47.319Z,31.70
2018-07-05T10:44:27.075Z,31.80
2018-07-05T10:47:06.761Z,31.30
2018-07-05T10:49:46.830Z,32.00
2018-07-05T10:52:26.665Z,31.60
2018-07-05T10:55:06.507Z,32.20
2018-07-05T10:57:46.567Z,32.30
2018-07-05T11:00:26.293Z,31.80
2018-07-05T11:03:06.103Z,31.80
2018-07-05T11:05:45.882Z,31.40
2018-07-05T11:08:25.758Z,32.00
2018-07-05T11:11:05.656Z,31.20
2018-07-05T11:13:45.379Z,31.20
2018-07-05T11:16:25.184Z,31.90
2018-07-05T11:19:04.804Z,32.50
2018-07-05T11:21:44.676Z,32.20
2018-07-05T11:24:24.564Z,31.40
2018-07-05T11:27:04.419Z,31.60
2018-07-05T11:29:44.059Z,31.50
2018-07-05T11:32:23.852Z,30.80
2018-07-05T11:35:03.540Z,30.20
2018-07-05T11:37:43.078Z,30.50
2018-07-05T11:40:22.804Z,30.50
2018-07-05T11:43:02.457Z,30.40
2018-07-05T11:45:42.304Z,30.30
2018-07-05T11:48:22.562Z,30.20
2018-07-05T11:51:02.381Z,30.20
2018-07-05T11:53:42.260Z,30.20
2018-07-05T11:58:55.440Z,29.70
2018-07-05T12:01:35.459Z,29.50
2018-07-05T12:04:15.313Z,29.40
2018-07-05T12:06:55.057Z,29.50
2018-07-05T12:09:34.944Z,30.10
2018-07-05T12:12:14.575Z,29.90
2018-07-05T12:14:54.511Z,29.90
2018-07-05T12:17:34.380Z,30.10
2018-07-05T12:20:14.155Z,30.60
2018-07-05T12:22:53.980Z,29.80
2018-07-05T12:25:33.730Z,29.70
2018-07-05T12:28:13.619Z,29.60
2018-07-05T12:30:53.418Z,29.70
2018-07-05T12:33:33.151Z,30.00
2018-07-05T12:36:12.854Z,30.00
2018-07-05T12:38:52.505Z,30.20
2018-07-05T12:41:32.192Z,30.20
2018-07-05T12:44:11.971Z,30.00
2018-07-05T12:46:51.690Z,29.70
2018-07-05T12:49:31.479Z,29.80
2018-07-05T12:52:11.315Z,29.80
2018-07-05T12:54:50.970Z,30.30
2018-07-05T12:57:30.777Z,30.70
2018-07-05T13:00:10.359Z,30.70
2018-07-05T13:02:50.092Z,31.10
2018-07-05T13:05:29.836Z,30.70
2018-07-05T13:08:09.723Z,31.10
2018-07-05T13:10:49.311Z,30.30
2018-07-05T13:13:28.972Z,30.70
2018-07-05T13:16:08.504Z,30.60
2018-07-05T13:18:48.181Z,30.10
2018-07-05T13:21:27.880Z,30.20
2018-07-05T13:24:07.496Z,30.40
2018-07-05T13:26:47.148Z,30.30
2018-07-05T13:29:27.000Z,29.70
2018-07-05T13:32:06.650Z,29.60
2018-07-05T13:34:46.538Z,29.40
2018-07-05T13:37:26.372Z,29.30
2018-07-05T13:40:06.213Z,30.10
2018-07-05T13:42:45.957Z,30.20
2018-07-05T13:45:25.894Z,30.30
2018-07-05T13:48:05.583Z,30.80
2018-07-05T13:50:45.360Z,30.90
2018-07-05T13:53:25.087Z,30.80
2018-07-05T13:56:04.753Z,30.50
2018-07-05T13:58:44.255Z,30.30
2018-07-05T14:01:23.980Z,30.70
2018-07-05T14:04:03.927Z,30.70
2018-07-05T14:06:43.756Z,30.60
2018-07-05T14:09:23.551Z,30.30
2018-07-05T14:12:03.319Z,30.30
2018-07-05T14:14:43.060Z,30.00
2018-07-05T14:17:22.882Z,30.40
2018-07-05T14:20:02.572Z,30.30
2018-07-05T14:22:42.124Z,30.60
2018-07-05T14:25:21.870Z,30.90
2018-07-05T14:28:01.620Z,31.00
2018-07-05T14:30:41.260Z,30.60
2018-07-05T14:33:21.187Z,30.30
2018-07-05T14:36:01.016Z,30.20
2018-07-05T14:38:40.881Z,30.20
2018-07-05T14:41:20.596Z,30.10
2018-07-05T14:44:00.375Z,30.30
2018-07-05T14:46:40.144Z,30.40
2018-07-05T14:49:20.004Z,30.50
2018-07-05T14:51:59.756Z,30.30
2018-07-05T14:54:39.643Z,30.20
2018-07-05T14:57:19.289Z,30.40
2018-07-05T15:02:32.556Z,31.00
2018-07-05T15:05:12.235Z,30.90
2018-07-05T15:07:51.949Z,30.60
2018-07-05T15:10:31.869Z,30.30
2018-07-05T15:13:11.730Z,30.30
2018-07-05T15:15:51.646Z,29.60
2018-07-05T15:18:31.427Z,29.70
2018-07-05T15:21:11.008Z,29.40
2018-07-05T15:23:50.650Z,29.80
2018-07-05T15:26:30.403Z,29.90
2018-07-05T15:29:10.090Z,29.10
2018-07-05T15:31:49.728Z,28.50
2018-07-05T15:34:29.384Z,28.60
2018-07-05T15:37:08.906Z,29.20
2018-07-05T15:39:48.404Z,29.80
2018-07-05T15:42:27.990Z,29.60
2018-07-05T15:45:07.869Z,29.80
2018-07-05T15:47:47.571Z,29.60
2018-07-05T15:50:27.211Z,29.70
2018-07-05T15:53:06.921Z,29.70
2018-07-05T15:55:46.589Z,29.90
2018-07-05T15:58:26.414Z,29.60
2018-07-05T16:01:06.247Z,29.90
2018-07-05T16:03:46.099Z,29.60
2018-07-05T16:06:25.807Z,29.20
2018-07-05T16:09:06.431Z,28.80
2018-07-05T16:11:46.176Z,28.80
2018-07-05T16:14:25.842Z,28.80
2018-07-05T16:17:05.751Z,28.30
2018-07-05T16:19:45.491Z,28.00
2018-07-05T16:22:25.199Z,28.00
2018-07-05T16:25:05.022Z,28.30
2018-07-05T16:27:44.834Z,28.20
2018-07-05T16:30:24.764Z,28.20
2018-07-05T16:33:04.618Z,28.10
2018-07-05T16:35:44.194Z,28.10
2018-07-05T16:38:23.984Z,28.00
2018-07-05T16:41:03.643Z,27.60
2018-07-05T16:43:43.446Z,27.70
2018-07-05T16:46:23.162Z,28.00
2018-07-05T16:49:02.855Z,28.20
2018-07-05T16:51:42.424Z,27.90
2018-07-05T16:54:22.176Z,28.10
2018-07-05T16:57:01.910Z,28.10
2018-07-05T16:59:41.552Z,28.10
2018-07-05T17:02:21.194Z,28.10
2018-07-05T17:05:01.413Z,28.10
2018-07-05T17:07:41.171Z,28.20
2018-07-05T17:10:21.040Z,28.00
2018-07-05T17:13:00.865Z,27.90
2018-07-05T17:15:40.638Z,27.70
2018-07-05T17:18:20.279Z,27.40
2018-07-05T17:20:59.944Z,27.40
2018-07-05T17:23:39.589Z,27.50
2018-07-05T17:26:19.391Z,27.40
2018-07-05T17:28:59.175Z,27.50
2018-07-05T17:31:38.958Z,27.50
2018-07-05T17:34:18.858Z,27.70
2018-07-05T17:36:58.694Z,27.50
2018-07-05T17:39:38.500Z,27.40
2018-07-05T17:42:18.290Z,27.10
2018-07-05T17:44:58.003Z,26.90
2018-07-05T17:47:37.783Z,26.80
2018-07-05T17:50:17.612Z,26.80
2018-07-05T17:52:57.460Z,26.80
2018-07-05T17:55:37.114Z,26.90
2018-07-05T17:58:16.751Z,26.80
2018-07-05T18:00:56.314Z,26.60
2018-07-05T18:03:35.959Z,26.50
2018-07-05T18:06:15.697Z,26.40
2018-07-05T18:08:55.600Z,26.30
2018-07-05T18:11:35.462Z,26.30
2018-07-05T18:14:15.148Z,26.30
2018-07-05T18:16:55.066Z,26.10
2018-07-05T18:19:34.860Z,26.00
2018-07-05T18:22:14.474Z,26.00
2018-07-05T18:24:54.226Z,25.90
2018-07-05T18:27:33.836Z,25.80
2018-07-05T18:30:13.544Z,25.80
2018-07-05T18:32:53.256Z,25.70
2018-07-05T18:35:33.018Z,25.60
2018-07-05T18:38:12.799Z,25.60
2018-07-05T18:40:52.531Z,25.60
2018-07-05T18:46:05.872Z,25.40
2018-07-05T18:48:45.712Z,25.40
2018-07-05T18:51:25.511Z,25.30
2018-07-05T18:54:05.408Z,25.20
2018-07-05T18:56:44.987Z,25.20
2018-07-05T18:59:24.772Z,25.10
2018-07-05T19:02:04.464Z,25.00
2018-07-05T19:04:44.112Z,24.90
2018-07-05T19:09:57.670Z,24.70
2018-07-05T19:12:37.307Z,24.60
2018-07-05T19:15:16.944Z,24.60
2018-07-05T19:17:56.626Z,24.50
2018-07-05T19:20:36.347Z,24.40
2018-07-05T19:23:15.992Z,24.30
2018-07-05T19:25:55.759Z,24.20
2018-07-05T20:50:44.871Z,24.00
2018-07-05T20:53:25.395Z,21.50
2018-07-05T20:56:05.294Z,21.30
2018-07-05T20:58:45.098Z,21.20
2018-07-05T21:01:24.962Z,21.10
2018-07-05T21:04:04.697Z,21.00
2018-07-05T21:06:44.537Z,20.90
2018-07-05T21:09:24.322Z,20.80
2018-07-05T21:12:03.947Z,20.80
2018-07-05T21:14:43.566Z,20.70
2018-07-05T21:17:24.381Z,20.70
2018-07-05T21:20:04.101Z,20.60
2018-07-05T21:22:43.636Z,20.60
2018-07-05T21:25:23.403Z,20.60
2018-07-05T21:28:02.953Z,20.50
2018-07-05T21:30:42.532Z,20.50
2018-07-05T21:33:22.300Z,20.40
2018-07-05T21:36:01.860Z,20.30
2018-07-05T21:38:41.389Z,20.20
2018-07-05T21:41:21.127Z,20.10
2018-07-05T21:44:00.641Z,20.00
2018-07-05T21:46:40.453Z,20.00
2018-07-05T21:49:20.304Z,19.90
2018-07-05T21:52:00.210Z,19.80
2018-07-05T21:54:40.092Z,19.70
2018-07-05T21:57:19.829Z,19.60
2018-07-05T21:59:59.914Z,19.60
2018-07-05T22:02:39.601Z,19.60
2018-07-05T22:05:19.570Z,19.50
2018-07-05T22:07:59.326Z,19.50
2018-07-05T22:10:39.079Z,19.40
2018-07-05T22:13:18.899Z,19.40
2018-07-05T22:15:58.471Z,19.40
2018-07-05T22:18:43.651Z,19.30
2018-07-05T22:21:23.414Z,19.30
2018-07-05T22:24:08.555Z,19.20
2018-07-05T22:26:48.456Z,19.20
2018-07-05T22:29:33.658Z,19.10
2018-07-05T22:32:13.418Z,19.00
2018-07-05T22:34:53.139Z,19.00
2018-07-05T22:37:32.933Z,18.90
2018-07-05T22:40:12.723Z,18.90
2018-07-05T22:42:52.276Z,18.90
2018-07-05T22:45:31.835Z,18.80
2018-07-05T22:48:11.570Z,18.70
2018-07-05T22:50:51.215Z,18.70
2018-07-05T22:53:30.779Z,18.60
2018-07-05T22:56:10.485Z,18.60
2018-07-05T22:58:50.379Z,18.50
2018-07-05T23:01:30.167Z,18.50
2018-07-05T23:04:09.927Z,18.40
2018-07-05T23:06:49.640Z,18.40
2018-07-05T23:09:29.381Z,18.30
2018-07-05T23:12:09.116Z,18.30
2018-07-05T23:14:48.734Z,18.20
2018-07-05T23:17:28.464Z,18.20
2018-07-05T23:20:08.464Z,18.20
2018-07-05T23:22:48.225Z,18.10
2018-07-05T23:25:28.028Z,18.10
2018-07-05T23:28:07.822Z,18.00
2018-07-05T23:30:47.636Z,18.00
2018-07-05T23:36:01.064Z,17.90
2018-07-05T23:38:40.719Z,17.90
2018-07-05T23:41:20.464Z,17.90
2018-07-05T23:44:00.035Z,17.80
2018-07-05T23:46:39.688Z,17.80
2018-07-05T23:49:19.929Z,17.80
2018-07-05T23:51:59.665Z,17.80
2018-07-05T23:54:39.242Z,17.80
2018-07-05T23:57:18.915Z,17.80
2018-07-05T23:59:58.675Z,17.80
